Billings, New York
Current Conditions -  °F | °C
As of 1:53 AM on Thursday 18 Dec 2014 (Local Time) from KPOU Reporting Station
Overcast Overcast  
Wind Chill: 34°   Ceiling: 3800
Heat Index: 40°   Visibility: 10mi
Dew Point: 27°   Wind: 8mph
Humidity: 60%   Direction: 260°W
Pressure: 29.85"   Gusts: NA
Location:  41.67°N, 73.76°W
Report Text: KPOU 180653Z AUTO 26007KT 10SM OVC038 04/M03 A2985 RMK AO2 SLP107 T00441028 TSNO
Loading
Personal Weather Stations






























Interactive Weather Map New forecast layout! Learn more

10-Day Weather Forecast

Advertisements
Track Severe Weather on mobile